sensor_id;sensor_type;location;lat;lon;timestamp;P1;durP1;ratioP1;P2;durP2;ratioP2
36327;SDS011;22354;50.012;8.264;2022-08-18T00:00:59;11.50;;;7.17;;
36327;SDS011;22354;50.012;8.264;2022-08-18T00:03:24;10.73;;;7.80;;
36327;SDS011;22354;50.012;8.264;2022-08-18T00:05:53;10.45;;;7.75;;
36327;SDS011;22354;50.012;8.264;2022-08-18T00:08:19;10.80;;;7.77;;
36327;SDS011;22354;50.012;8.264;2022-08-18T00:10:44;11.77;;;7.97;;
36327;SDS011;22354;50.012;8.264;2022-08-18T00:13:09;12.97;;;8.67;;
36327;SDS011;22354;50.012;8.264;2022-08-18T00:15:34;11.77;;;7.90;;
36327;SDS011;22354;50.012;8.264;2022-08-18T00:18:00;12.57;;;8.50;;
36327;SDS011;22354;50.012;8.264;2022-08-18T00:20:25;12.60;;;8.20;;
36327;SDS011;22354;50.012;8.264;2022-08-18T00:22:50;8.73;;;7.00;;
36327;SDS011;22354;50.012;8.264;2022-08-18T00:25:16;10.33;;;7.50;;
36327;SDS011;22354;50.012;8.264;2022-08-18T00:27:42;14.03;;;7.50;;
36327;SDS011;22354;50.012;8.264;2022-08-18T00:30:09;10.20;;;7.40;;
36327;SDS011;22354;50.012;8.264;2022-08-18T00:32:41;12.55;;;7.88;;
36327;SDS011;22354;50.012;8.264;2022-08-18T00:35:11;11.20;;;7.65;;
36327;SDS011;22354;50.012;8.264;2022-08-18T00:37:39;11.98;;;7.68;;
36327;SDS011;22354;50.012;8.264;2022-08-18T00:40:06;9.43;;;7.70;;
36327;SDS011;22354;50.012;8.264;2022-08-18T00:42:38;10.20;;;7.40;;
36327;SDS011;22354;50.012;8.264;2022-08-18T00:45:08;11.93;;;8.10;;
36327;SDS011;22354;50.012;8.264;2022-08-18T00:47:36;11.10;;;8.30;;
36327;SDS011;22354;50.012;8.264;2022-08-18T00:50:01;12.50;;;7.63;;
36327;SDS011;22354;50.012;8.264;2022-08-18T00:52:28;13.63;;;8.25;;
36327;SDS011;22354;50.012;8.264;2022-08-18T00:54:53;11.00;;;7.77;;
36327;SDS011;22354;50.012;8.264;2022-08-18T00:57:19;12.25;;;8.05;;
36327;SDS011;22354;50.012;8.264;2022-08-18T00:59:52;12.37;;;8.03;;
36327;SDS011;22354;50.012;8.264;2022-08-18T01:02:23;11.27;;;7.50;;
36327;SDS011;22354;50.012;8.264;2022-08-18T01:04:55;14.85;;;8.52;;
36327;SDS011;22354;50.012;8.264;2022-08-18T01:07:35;12.93;;;8.45;;
36327;SDS011;22354;50.012;8.264;2022-08-18T01:10:16;15.93;;;9.00;;
36327;SDS011;22354;50.012;8.264;2022-08-18T01:12:44;15.95;;;8.48;;
36327;SDS011;22354;50.012;8.264;2022-08-18T01:15:11;13.50;;;8.10;;
36327;SDS011;22354;50.012;8.264;2022-08-18T01:17:39;10.00;;;8.43;;
36327;SDS011;22354;50.012;8.264;2022-08-18T01:20:26;10.48;;;8.10;;
36327;SDS011;22354;50.012;8.264;2022-08-18T01:23:17;13.38;;;9.10;;
36327;SDS011;22354;50.012;8.264;2022-08-18T01:25:44;11.05;;;8.43;;
36327;SDS011;22354;50.012;8.264;2022-08-18T01:28:26;11.65;;;8.43;;
36327;SDS011;22354;50.012;8.264;2022-08-18T01:30:53;15.40;;;8.73;;
36327;SDS011;22354;50.012;8.264;2022-08-18T01:33:22;15.65;;;8.93;;
36327;SDS011;22354;50.012;8.264;2022-08-18T01:35:57;10.98;;;7.68;;
36327;SDS011;22354;50.012;8.264;2022-08-18T01:38:28;12.80;;;8.25;;
36327;SDS011;22354;50.012;8.264;2022-08-18T01:40:56;10.02;;;7.90;;
36327;SDS011;22354;50.012;8.264;2022-08-18T01:43:22;14.68;;;8.70;;
36327;SDS011;22354;50.012;8.264;2022-08-18T01:45:47;15.17;;;8.40;;
36327;SDS011;22354;50.012;8.264;2022-08-18T01:48:15;13.07;;;8.10;;
36327;SDS011;22354;50.012;8.264;2022-08-18T01:50:40;9.23;;;6.95;;
36327;SDS011;22354;50.012;8.264;2022-08-18T01:53:08;13.13;;;7.93;;
36327;SDS011;22354;50.012;8.264;2022-08-18T01:55:35;10.13;;;8.10;;
36327;SDS011;22354;50.012;8.264;2022-08-18T01:58:03;9.80;;;7.40;;
36327;SDS011;22354;50.012;8.264;2022-08-18T02:00:29;9.60;;;7.10;;
36327;SDS011;22354;50.012;8.264;2022-08-18T02:02:56;14.07;;;7.53;;
36327;SDS011;22354;50.012;8.264;2022-08-18T02:05:23;9.87;;;7.80;;
36327;SDS011;22354;50.012;8.264;2022-08-18T02:07:55;9.43;;;7.20;;
36327;SDS011;22354;50.012;8.264;2022-08-18T02:10:21;9.53;;;7.23;;
36327;SDS011;22354;50.012;8.264;2022-08-18T02:12:46;11.80;;;7.47;;
36327;SDS011;22354;50.012;8.264;2022-08-18T02:15:11;9.43;;;7.03;;
36327;SDS011;22354;50.012;8.264;2022-08-18T02:17:37;11.33;;;7.70;;
36327;SDS011;22354;50.012;8.264;2022-08-18T02:20:04;13.57;;;7.90;;
36327;SDS011;22354;50.012;8.264;2022-08-18T02:22:32;12.43;;;7.83;;
36327;SDS011;22354;50.012;8.264;2022-08-18T02:24:57;15.30;;;7.80;;
36327;SDS011;22354;50.012;8.264;2022-08-18T02:27:22;16.77;;;7.70;;
36327;SDS011;22354;50.012;8.264;2022-08-18T02:29:47;13.67;;;7.60;;
36327;SDS011;22354;50.012;8.264;2022-08-18T02:32:13;12.27;;;7.27;;
36327;SDS011;22354;50.012;8.264;2022-08-18T02:34:38;12.73;;;8.10;;
36327;SDS011;22354;50.012;8.264;2022-08-18T02:37:04;15.80;;;7.60;;
36327;SDS011;22354;50.012;8.264;2022-08-18T02:39:32;10.57;;;7.97;;
36327;SDS011;22354;50.012;8.264;2022-08-18T02:41:58;10.63;;;7.43;;
36327;SDS011;22354;50.012;8.264;2022-08-18T02:44:23;10.73;;;7.67;;
36327;SDS011;22354;50.012;8.264;2022-08-18T02:46:52;9.87;;;7.83;;
36327;SDS011;22354;50.012;8.264;2022-08-18T02:49:18;12.90;;;8.07;;
36327;SDS011;22354;50.012;8.264;2022-08-18T02:51:43;10.82;;;7.25;;
36327;SDS011;22354;50.012;8.264;2022-08-18T02:54:09;11.13;;;7.85;;
36327;SDS011;22354;50.012;8.264;2022-08-18T02:56:36;9.55;;;7.30;;
36327;SDS011;22354;50.012;8.264;2022-08-18T02:59:05;10.82;;;7.82;;
36327;SDS011;22354;50.012;8.264;2022-08-18T03:01:33;11.93;;;7.05;;
36327;SDS011;22354;50.012;8.264;2022-08-18T03:04:02;10.45;;;7.47;;
36327;SDS011;22354;50.012;8.264;2022-08-18T03:06:30;11.05;;;7.72;;
36327;SDS011;22354;50.012;8.264;2022-08-18T03:08:56;11.65;;;8.32;;
36327;SDS011;22354;50.012;8.264;2022-08-18T03:11:23;11.70;;;7.33;;
36327;SDS011;22354;50.012;8.264;2022-08-18T03:13:51;11.88;;;7.90;;
36327;SDS011;22354;50.012;8.264;2022-08-18T03:16:17;10.07;;;6.88;;
36327;SDS011;22354;50.012;8.264;2022-08-18T03:18:42;9.85;;;7.32;;
36327;SDS011;22354;50.012;8.264;2022-08-18T03:21:15;9.27;;;7.10;;
36327;SDS011;22354;50.012;8.264;2022-08-18T03:23:48;10.70;;;7.32;;
36327;SDS011;22354;50.012;8.264;2022-08-18T03:26:15;13.20;;;7.00;;
36327;SDS011;22354;50.012;8.264;2022-08-18T03:28:42;10.93;;;6.20;;
36327;SDS011;22354;50.012;8.264;2022-08-18T03:31:09;8.35;;;6.13;;
36327;SDS011;22354;50.012;8.264;2022-08-18T03:33:36;11.10;;;7.35;;
36327;SDS011;22354;50.012;8.264;2022-08-18T03:36:05;11.75;;;8.07;;
36327;SDS011;22354;50.012;8.264;2022-08-18T03:38:32;11.25;;;7.70;;
36327;SDS011;22354;50.012;8.264;2022-08-18T03:40:58;10.43;;;7.72;;
36327;SDS011;22354;50.012;8.264;2022-08-18T03:43:24;13.13;;;8.97;;
36327;SDS011;22354;50.012;8.264;2022-08-18T03:45:49;12.83;;;8.47;;
36327;SDS011;22354;50.012;8.264;2022-08-18T03:48:14;12.67;;;8.77;;
36327;SDS011;22354;50.012;8.264;2022-08-18T03:50:40;12.02;;;8.63;;
36327;SDS011;22354;50.012;8.264;2022-08-18T03:53:05;11.60;;;8.30;;
36327;SDS011;22354;50.012;8.264;2022-08-18T03:55:31;14.87;;;9.47;;
36327;SDS011;22354;50.012;8.264;2022-08-18T03:57:57;12.43;;;8.97;;
36327;SDS011;22354;50.012;8.264;2022-08-18T04:00:23;14.40;;;8.95;;
36327;SDS011;22354;50.012;8.264;2022-08-18T04:02:50;12.45;;;8.15;;
36327;SDS011;22354;50.012;8.264;2022-08-18T04:05:15;13.98;;;9.35;;
36327;SDS011;22354;50.012;8.264;2022-08-18T04:07:41;13.90;;;8.67;;
36327;SDS011;22354;50.012;8.264;2022-08-18T04:10:06;13.10;;;8.40;;
36327;SDS011;22354;50.012;8.264;2022-08-18T04:12:32;12.43;;;8.13;;
36327;SDS011;22354;50.012;8.264;2022-08-18T04:14:57;15.03;;;8.87;;
36327;SDS011;22354;50.012;8.264;2022-08-18T04:17:22;12.87;;;8.33;;
36327;SDS011;22354;50.012;8.264;2022-08-18T04:19:49;13.93;;;8.75;;
36327;SDS011;22354;50.012;8.264;2022-08-18T04:22:18;12.93;;;8.35;;
36327;SDS011;22354;50.012;8.264;2022-08-18T04:24:43;15.67;;;8.57;;
36327;SDS011;22354;50.012;8.264;2022-08-18T04:27:09;12.70;;;8.43;;
36327;SDS011;22354;50.012;8.264;2022-08-18T04:29:34;14.70;;;8.67;;
36327;SDS011;22354;50.012;8.264;2022-08-18T04:32:00;13.03;;;8.67;;
36327;SDS011;22354;50.012;8.264;2022-08-18T04:34:28;13.63;;;8.50;;
36327;SDS011;22354;50.012;8.264;2022-08-18T04:36:56;10.98;;;7.95;;
36327;SDS011;22354;50.012;8.264;2022-08-18T04:39:22;10.87;;;8.17;;
36327;SDS011;22354;50.012;8.264;2022-08-18T04:41:47;15.50;;;8.15;;
36327;SDS011;22354;50.012;8.264;2022-08-18T04:44:14;13.65;;;8.80;;
36327;SDS011;22354;50.012;8.264;2022-08-18T04:46:42;11.95;;;7.20;;
36327;SDS011;22354;50.012;8.264;2022-08-18T04:49:11;14.52;;;8.43;;
36327;SDS011;22354;50.012;8.264;2022-08-18T04:51:39;11.35;;;8.18;;
36327;SDS011;22354;50.012;8.264;2022-08-18T04:54:07;13.57;;;8.77;;
36327;SDS011;22354;50.012;8.264;2022-08-18T04:56:35;14.17;;;8.93;;
36327;SDS011;22354;50.012;8.264;2022-08-18T04:59:07;14.10;;;9.27;;
36327;SDS011;22354;50.012;8.264;2022-08-18T05:01:35;11.10;;;8.57;;
36327;SDS011;22354;50.012;8.264;2022-08-18T05:04:02;9.77;;;7.97;;
36327;SDS011;22354;50.012;8.264;2022-08-18T05:06:28;11.97;;;8.43;;
36327;SDS011;22354;50.012;8.264;2022-08-18T05:08:56;11.95;;;8.43;;
36327;SDS011;22354;50.012;8.264;2022-08-18T05:11:23;13.60;;;8.70;;
36327;SDS011;22354;50.012;8.264;2022-08-18T05:13:52;16.27;;;8.52;;
36327;SDS011;22354;50.012;8.264;2022-08-18T05:16:18;10.97;;;7.80;;
36327;SDS011;22354;50.012;8.264;2022-08-18T05:18:43;12.57;;;8.17;;
36327;SDS011;22354;50.012;8.264;2022-08-18T05:21:09;15.83;;;7.90;;
36327;SDS011;22354;50.012;8.264;2022-08-18T05:23:40;13.95;;;8.07;;
36327;SDS011;22354;50.012;8.264;2022-08-18T05:26:07;13.95;;;8.30;;
36327;SDS011;22354;50.012;8.264;2022-08-18T05:28:32;12.30;;;7.47;;
36327;SDS011;22354;50.012;8.264;2022-08-18T05:31:20;12.68;;;8.30;;
36327;SDS011;22354;50.012;8.264;2022-08-18T05:33:47;13.45;;;7.95;;
36327;SDS011;22354;50.012;8.264;2022-08-18T05:41:53;11.02;;;7.22;;
36327;SDS011;22354;50.012;8.264;2022-08-18T05:44:21;12.25;;;8.13;;
36327;SDS011;22354;50.012;8.264;2022-08-18T05:46:55;14.23;;;8.57;;
36327;SDS011;22354;50.012;8.264;2022-08-18T05:49:23;12.85;;;7.72;;
36327;SDS011;22354;50.012;8.264;2022-08-18T05:51:51;13.52;;;8.25;;
36327;SDS011;22354;50.012;8.264;2022-08-18T05:54:19;12.88;;;8.02;;
36327;SDS011;22354;50.012;8.264;2022-08-18T05:57:04;13.60;;;8.25;;
36327;SDS011;22354;50.012;8.264;2022-08-18T05:59:36;13.32;;;8.50;;
36327;SDS011;22354;50.012;8.264;2022-08-18T06:02:11;13.70;;;7.93;;
36327;SDS011;22354;50.012;8.264;2022-08-18T06:04:54;13.43;;;8.73;;
36327;SDS011;22354;50.012;8.264;2022-08-18T06:10:14;16.13;;;8.73;;
36327;SDS011;22354;50.012;8.264;2022-08-18T06:12:47;20.20;;;9.03;;
36327;SDS011;22354;50.012;8.264;2022-08-18T06:15:18;34.25;;;8.48;;
36327;SDS011;22354;50.012;8.264;2022-08-18T06:18:00;15.90;;;8.13;;
36327;SDS011;22354;50.012;8.264;2022-08-18T06:28:46;14.40;;;8.68;;
36327;SDS011;22354;50.012;8.264;2022-08-18T06:37:00;24.70;;;9.93;;
36327;SDS011;22354;50.012;8.264;2022-08-18T06:39:50;16.48;;;8.90;;
36327;SDS011;22354;50.012;8.264;2022-08-18T06:42:21;12.73;;;8.55;;
36327;SDS011;22354;50.012;8.264;2022-08-18T06:44:54;15.02;;;8.75;;
36327;SDS011;22354;50.012;8.264;2022-08-18T06:47:42;15.57;;;9.10;;
36327;SDS011;22354;50.012;8.264;2022-08-18T06:50:17;15.63;;;8.68;;
36327;SDS011;22354;50.012;8.264;2022-08-18T06:52:54;16.75;;;10.18;;
36327;SDS011;22354;50.012;8.264;2022-08-18T06:55:32;38.55;;;10.52;;
36327;SDS011;22354;50.012;8.264;2022-08-18T06:57:59;31.10;;;9.30;;
36327;SDS011;22354;50.012;8.264;2022-08-18T07:00:31;20.23;;;9.45;;
36327;SDS011;22354;50.012;8.264;2022-08-18T07:03:03;22.40;;;9.23;;
36327;SDS011;22354;50.012;8.264;2022-08-18T07:05:33;21.80;;;9.48;;
36327;SDS011;22354;50.012;8.264;2022-08-18T07:10:57;15.57;;;9.15;;
36327;SDS011;22354;50.012;8.264;2022-08-18T07:13:55;15.60;;;9.40;;
36327;SDS011;22354;50.012;8.264;2022-08-18T07:16:29;12.45;;;9.00;;
36327;SDS011;22354;50.012;8.264;2022-08-18T07:19:15;11.97;;;9.00;;
36327;SDS011;22354;50.012;8.264;2022-08-18T07:24:33;12.70;;;9.13;;
36327;SDS011;22354;50.012;8.264;2022-08-18T07:27:09;13.43;;;9.38;;
36327;SDS011;22354;50.012;8.264;2022-08-18T07:29:39;15.80;;;9.82;;
36327;SDS011;22354;50.012;8.264;2022-08-18T07:32:22;13.55;;;8.70;;
36327;SDS011;22354;50.012;8.264;2022-08-18T07:34:53;14.90;;;8.60;;
36327;SDS011;22354;50.012;8.264;2022-08-18T07:37:25;14.68;;;9.23;;
36327;SDS011;22354;50.012;8.264;2022-08-18T07:42:48;16.00;;;9.10;;
36327;SDS011;22354;50.012;8.264;2022-08-18T07:45:26;14.65;;;9.85;;
36327;SDS011;22354;50.012;8.264;2022-08-18T07:53:22;17.30;;;11.25;;
36327;SDS011;22354;50.012;8.264;2022-08-18T07:56:04;15.23;;;10.83;;
36327;SDS011;22354;50.012;8.264;2022-08-18T07:58:40;17.65;;;10.40;;
36327;SDS011;22354;50.012;8.264;2022-08-18T08:01:22;14.27;;;9.43;;
36327;SDS011;22354;50.012;8.264;2022-08-18T08:04:12;14.60;;;10.60;;
36327;SDS011;22354;50.012;8.264;2022-08-18T08:06:48;15.18;;;10.05;;
36327;SDS011;22354;50.012;8.264;2022-08-18T08:09:28;14.40;;;9.90;;
36327;SDS011;22354;50.012;8.264;2022-08-18T08:12:32;15.00;;;9.93;;
36327;SDS011;22354;50.012;8.264;2022-08-18T08:15:30;17.00;;;9.82;;
36327;SDS011;22354;50.012;8.264;2022-08-18T08:20:47;16.00;;;10.70;;
36327;SDS011;22354;50.012;8.264;2022-08-18T08:23:29;19.20;;;10.10;;
36327;SDS011;22354;50.012;8.264;2022-08-18T08:31:40;15.02;;;9.93;;
36327;SDS011;22354;50.012;8.264;2022-08-18T08:34:21;17.00;;;9.77;;
36327;SDS011;22354;50.012;8.264;2022-08-18T08:36:59;16.73;;;9.40;;
36327;SDS011;22354;50.012;8.264;2022-08-18T08:40:01;15.15;;;9.13;;
36327;SDS011;22354;50.012;8.264;2022-08-18T08:42:27;28.80;;;14.63;;
36327;SDS011;22354;50.012;8.264;2022-08-18T08:44:56;24.00;;;15.95;;
36327;SDS011;22354;50.012;8.264;2022-08-18T08:47:29;20.10;;;14.15;;
36327;SDS011;22354;50.012;8.264;2022-08-18T08:52:44;25.63;;;12.00;;
36327;SDS011;22354;50.012;8.264;2022-08-18T08:55:16;20.60;;;11.57;;
36327;SDS011;22354;50.012;8.264;2022-08-18T08:57:50;20.47;;;12.83;;
36327;SDS011;22354;50.012;8.264;2022-08-18T09:00:27;16.75;;;11.20;;
36327;SDS011;22354;50.012;8.264;2022-08-18T09:03:11;19.27;;;11.00;;
36327;SDS011;22354;50.012;8.264;2022-08-18T09:08:39;17.33;;;10.20;;
36327;SDS011;22354;50.012;8.264;2022-08-18T09:14:05;18.88;;;10.88;;
36327;SDS011;22354;50.012;8.264;2022-08-18T09:24:56;14.35;;;9.05;;
36327;SDS011;22354;50.012;8.264;2022-08-18T09:27:30;12.90;;;9.20;;
36327;SDS011;22354;50.012;8.264;2022-08-18T09:30:04;15.27;;;10.07;;
36327;SDS011;22354;50.012;8.264;2022-08-18T09:38:07;14.15;;;9.82;;
36327;SDS011;22354;50.012;8.264;2022-08-18T09:41:03;13.35;;;9.75;;
36327;SDS011;22354;50.012;8.264;2022-08-18T09:43:55;14.67;;;10.17;;
36327;SDS011;22354;50.012;8.264;2022-08-18T09:54:22;13.93;;;9.98;;
36327;SDS011;22354;50.012;8.264;2022-08-18T10:04:39;13.60;;;9.13;;
36327;SDS011;22354;50.012;8.264;2022-08-18T10:09:51;13.63;;;9.27;;
36327;SDS011;22354;50.012;8.264;2022-08-18T10:12:26;12.00;;;9.00;;
36327;SDS011;22354;50.012;8.264;2022-08-18T10:15:07;15.95;;;9.70;;
36327;SDS011;22354;50.012;8.264;2022-08-18T10:17:53;13.52;;;10.27;;
36327;SDS011;22354;50.012;8.264;2022-08-18T10:22:56;15.53;;;9.93;;
36327;SDS011;22354;50.012;8.264;2022-08-18T10:25:35;15.20;;;9.50;;
36327;SDS011;22354;50.012;8.264;2022-08-18T10:28:04;13.50;;;10.35;;
36327;SDS011;22354;50.012;8.264;2022-08-18T10:33:09;14.60;;;9.73;;
36327;SDS011;22354;50.012;8.264;2022-08-18T10:38:01;13.77;;;9.20;;
36327;SDS011;22354;50.012;8.264;2022-08-18T10:40:33;13.00;;;9.48;;
36327;SDS011;22354;50.012;8.264;2022-08-18T10:43:08;15.38;;;9.52;;
36327;SDS011;22354;50.012;8.264;2022-08-18T10:45:48;12.77;;;9.07;;
36327;SDS011;22354;50.012;8.264;2022-08-18T10:48:25;13.77;;;9.48;;
36327;SDS011;22354;50.012;8.264;2022-08-18T11:02:30;14.27;;;9.43;;
36327;SDS011;22354;50.012;8.264;2022-08-18T11:05:09;14.60;;;9.80;;
36327;SDS011;22354;50.012;8.264;2022-08-18T11:07:35;12.98;;;9.63;;
36327;SDS011;22354;50.012;8.264;2022-08-18T11:10:20;20.30;;;10.25;;
36327;SDS011;22354;50.012;8.264;2022-08-18T11:13:03;13.80;;;10.48;;
36327;SDS011;22354;50.012;8.264;2022-08-18T11:18:18;17.43;;;10.53;;
36327;SDS011;22354;50.012;8.264;2022-08-18T11:26:52;15.07;;;10.30;;
36327;SDS011;22354;50.012;8.264;2022-08-18T11:29:24;14.25;;;10.32;;
36327;SDS011;22354;50.012;8.264;2022-08-18T11:34:44;17.95;;;10.27;;
36327;SDS011;22354;50.012;8.264;2022-08-18T11:39:56;16.17;;;10.75;;
36327;SDS011;22354;50.012;8.264;2022-08-18T11:42:28;17.92;;;11.18;;
36327;SDS011;22354;50.012;8.264;2022-08-18T11:50:57;14.68;;;9.55;;
36327;SDS011;22354;50.012;8.264;2022-08-18T11:56:14;20.13;;;10.20;;
36327;SDS011;22354;50.012;8.264;2022-08-18T11:58:54;14.05;;;9.13;;
36327;SDS011;22354;50.012;8.264;2022-08-18T12:06:39;11.15;;;8.15;;
36327;SDS011;22354;50.012;8.264;2022-08-18T12:12:05;12.10;;;8.40;;
36327;SDS011;22354;50.012;8.264;2022-08-18T12:14:58;13.82;;;7.90;;
36327;SDS011;22354;50.012;8.264;2022-08-18T12:17:24;14.32;;;8.25;;
36327;SDS011;22354;50.012;8.264;2022-08-18T12:19:51;10.07;;;7.40;;
36327;SDS011;22354;50.012;8.264;2022-08-18T12:22:17;12.30;;;8.03;;
36327;SDS011;22354;50.012;8.264;2022-08-18T12:24:45;11.13;;;7.82;;
36327;SDS011;22354;50.012;8.264;2022-08-18T12:27:13;12.07;;;8.57;;
36327;SDS011;22354;50.012;8.264;2022-08-18T12:29:39;12.73;;;7.90;;
36327;SDS011;22354;50.012;8.264;2022-08-18T12:32:06;10.75;;;7.72;;
36327;SDS011;22354;50.012;8.264;2022-08-18T12:34:31;9.97;;;7.10;;
36327;SDS011;22354;50.012;8.264;2022-08-18T12:36:57;11.30;;;6.68;;
36327;SDS011;22354;50.012;8.264;2022-08-18T12:39:27;10.10;;;6.57;;
36327;SDS011;22354;50.012;8.264;2022-08-18T12:41:54;8.47;;;6.17;;
36327;SDS011;22354;50.012;8.264;2022-08-18T12:44:20;11.40;;;6.28;;
36327;SDS011;22354;50.012;8.264;2022-08-18T12:46:45;8.87;;;6.17;;
36327;SDS011;22354;50.012;8.264;2022-08-18T12:49:13;8.43;;;6.20;;
36327;SDS011;22354;50.012;8.264;2022-08-18T12:51:47;8.33;;;6.60;;
36327;SDS011;22354;50.012;8.264;2022-08-18T12:54:14;9.48;;;6.72;;
36327;SDS011;22354;50.012;8.264;2022-08-18T12:56:40;8.23;;;6.63;;
36327;SDS011;22354;50.012;8.264;2022-08-18T12:59:07;9.68;;;6.55;;
36327;SDS011;22354;50.012;8.264;2022-08-18T13:01:35;9.77;;;5.80;;
36327;SDS011;22354;50.012;8.264;2022-08-18T13:04:02;7.78;;;5.80;;
36327;SDS011;22354;50.012;8.264;2022-08-18T13:06:28;8.00;;;5.78;;
36327;SDS011;22354;50.012;8.264;2022-08-18T13:08:55;9.00;;;5.82;;
36327;SDS011;22354;50.012;8.264;2022-08-18T13:11:21;6.57;;;5.68;;
36327;SDS011;22354;50.012;8.264;2022-08-18T13:13:47;8.30;;;6.07;;
36327;SDS011;22354;50.012;8.264;2022-08-18T13:16:13;6.82;;;5.68;;
36327;SDS011;22354;50.012;8.264;2022-08-18T13:18:39;7.78;;;5.70;;
36327;SDS011;22354;50.012;8.264;2022-08-18T13:21:09;9.02;;;6.15;;
36327;SDS011;22354;50.012;8.264;2022-08-18T13:26:03;6.35;;;5.43;;
36327;SDS011;22354;50.012;8.264;2022-08-18T13:28:30;9.27;;;6.85;;
36327;SDS011;22354;50.012;8.264;2022-08-18T13:30:57;9.00;;;5.85;;
36327;SDS011;22354;50.012;8.264;2022-08-18T13:33:22;7.53;;;6.38;;
36327;SDS011;22354;50.012;8.264;2022-08-18T13:35:48;7.83;;;6.17;;
36327;SDS011;22354;50.012;8.264;2022-08-18T13:38:16;7.82;;;5.68;;
36327;SDS011;22354;50.012;8.264;2022-08-18T13:40:44;7.75;;;6.00;;
36327;SDS011;22354;50.012;8.264;2022-08-18T13:43:12;7.78;;;5.90;;
36327;SDS011;22354;50.012;8.264;2022-08-18T13:45:39;8.20;;;6.05;;
36327;SDS011;22354;50.012;8.264;2022-08-18T13:48:06;7.95;;;5.90;;
36327;SDS011;22354;50.012;8.264;2022-08-18T13:50:31;10.77;;;6.50;;
36327;SDS011;22354;50.012;8.264;2022-08-18T13:52:57;7.30;;;6.07;;
36327;SDS011;22354;50.012;8.264;2022-08-18T13:55:25;6.35;;;5.68;;
36327;SDS011;22354;50.012;8.264;2022-08-18T13:57:52;8.02;;;6.43;;
36327;SDS011;22354;50.012;8.264;2022-08-18T14:00:19;9.70;;;5.80;;
36327;SDS011;22354;50.012;8.264;2022-08-18T14:02:46;8.17;;;6.30;;
36327;SDS011;22354;50.012;8.264;2022-08-18T14:05:14;8.38;;;6.38;;
36327;SDS011;22354;50.012;8.264;2022-08-18T14:07:41;7.82;;;5.93;;
36327;SDS011;22354;50.012;8.264;2022-08-18T14:10:07;7.37;;;5.93;;
36327;SDS011;22354;50.012;8.264;2022-08-18T14:12:33;8.70;;;6.13;;
36327;SDS011;22354;50.012;8.264;2022-08-18T14:15:02;9.88;;;6.05;;
36327;SDS011;22354;50.012;8.264;2022-08-18T14:17:31;8.75;;;6.30;;
36327;SDS011;22354;50.012;8.264;2022-08-18T14:19:57;9.30;;;6.22;;
36327;SDS011;22354;50.012;8.264;2022-08-18T14:22:42;7.85;;;6.38;;
36327;SDS011;22354;50.012;8.264;2022-08-18T14:25:26;9.80;;;7.07;;
36327;SDS011;22354;50.012;8.264;2022-08-18T14:28:10;14.35;;;7.07;;
36327;SDS011;22354;50.012;8.264;2022-08-18T14:30:35;11.63;;;6.93;;
36327;SDS011;22354;50.012;8.264;2022-08-18T14:33:03;8.93;;;7.05;;
36327;SDS011;22354;50.012;8.264;2022-08-18T14:35:29;11.27;;;6.95;;
36327;SDS011;22354;50.012;8.264;2022-08-18T14:37:55;8.10;;;6.77;;
36327;SDS011;22354;50.012;8.264;2022-08-18T14:40:20;13.52;;;8.20;;
36327;SDS011;22354;50.012;8.264;2022-08-18T14:42:46;10.40;;;7.82;;
36327;SDS011;22354;50.012;8.264;2022-08-18T14:45:12;11.10;;;7.22;;
36327;SDS011;22354;50.012;8.264;2022-08-18T14:47:38;13.15;;;7.70;;
36327;SDS011;22354;50.012;8.264;2022-08-18T14:50:06;11.30;;;8.23;;
36327;SDS011;22354;50.012;8.264;2022-08-18T14:52:36;12.77;;;7.90;;
36327;SDS011;22354;50.012;8.264;2022-08-18T14:55:02;10.55;;;8.07;;
36327;SDS011;22354;50.012;8.264;2022-08-18T14:57:28;11.00;;;8.15;;
36327;SDS011;22354;50.012;8.264;2022-08-18T14:59:53;13.63;;;9.37;;
36327;SDS011;22354;50.012;8.264;2022-08-18T15:02:19;15.50;;;8.97;;
36327;SDS011;22354;50.012;8.264;2022-08-18T15:04:44;14.50;;;8.80;;
36327;SDS011;22354;50.012;8.264;2022-08-18T15:07:10;16.60;;;9.60;;
36327;SDS011;22354;50.012;8.264;2022-08-18T15:09:35;12.87;;;9.03;;
36327;SDS011;22354;50.012;8.264;2022-08-18T15:12:00;14.10;;;9.07;;
36327;SDS011;22354;50.012;8.264;2022-08-18T15:14:27;13.37;;;9.43;;
36327;SDS011;22354;50.012;8.264;2022-08-18T15:16:59;16.10;;;9.40;;
36327;SDS011;22354;50.012;8.264;2022-08-18T15:19:30;16.90;;;10.48;;
36327;SDS011;22354;50.012;8.264;2022-08-18T15:21:55;17.30;;;10.95;;
36327;SDS011;22354;50.012;8.264;2022-08-18T15:24:40;18.05;;;11.55;;
36327;SDS011;22354;50.012;8.264;2022-08-18T15:27:35;17.15;;;10.93;;
36327;SDS011;22354;50.012;8.264;2022-08-18T15:30:06;14.93;;;10.30;;
36327;SDS011;22354;50.012;8.264;2022-08-18T15:32:35;13.80;;;9.43;;
36327;SDS011;22354;50.012;8.264;2022-08-18T15:35:01;13.13;;;8.80;;
36327;SDS011;22354;50.012;8.264;2022-08-18T15:37:26;13.23;;;8.87;;
36327;SDS011;22354;50.012;8.264;2022-08-18T15:40:07;11.50;;;8.30;;
36327;SDS011;22354;50.012;8.264;2022-08-18T15:42:37;11.68;;;8.48;;
36327;SDS011;22354;50.012;8.264;2022-08-18T15:45:08;12.65;;;8.00;;
36327;SDS011;22354;50.012;8.264;2022-08-18T15:47:33;15.05;;;9.15;;
36327;SDS011;22354;50.012;8.264;2022-08-18T15:49:59;17.63;;;9.25;;
36327;SDS011;22354;50.012;8.264;2022-08-18T15:52:25;13.73;;;9.50;;
36327;SDS011;22354;50.012;8.264;2022-08-18T15:54:50;14.40;;;9.23;;
36327;SDS011;22354;50.012;8.264;2022-08-18T15:57:15;13.57;;;9.03;;
36327;SDS011;22354;50.012;8.264;2022-08-18T15:59:41;14.57;;;9.37;;
36327;SDS011;22354;50.012;8.264;2022-08-18T16:02:08;13.43;;;9.57;;
36327;SDS011;22354;50.012;8.264;2022-08-18T16:04:34;17.33;;;9.73;;
36327;SDS011;22354;50.012;8.264;2022-08-18T16:07:02;14.90;;;10.10;;
36327;SDS011;22354;50.012;8.264;2022-08-18T16:09:28;16.08;;;9.85;;
36327;SDS011;22354;50.012;8.264;2022-08-18T16:11:53;14.43;;;9.63;;
36327;SDS011;22354;50.012;8.264;2022-08-18T16:14:18;13.17;;;8.93;;
36327;SDS011;22354;50.012;8.264;2022-08-18T16:16:44;14.30;;;9.13;;
36327;SDS011;22354;50.012;8.264;2022-08-18T16:19:09;14.38;;;9.25;;
36327;SDS011;22354;50.012;8.264;2022-08-18T16:21:34;14.32;;;9.38;;
36327;SDS011;22354;50.012;8.264;2022-08-18T16:24:03;17.83;;;9.52;;
36327;SDS011;22354;50.012;8.264;2022-08-18T16:26:29;12.98;;;9.00;;
36327;SDS011;22354;50.012;8.264;2022-08-18T16:28:54;16.75;;;9.25;;
36327;SDS011;22354;50.012;8.264;2022-08-18T16:31:20;12.97;;;9.03;;
36327;SDS011;22354;50.012;8.264;2022-08-18T16:33:54;14.90;;;8.57;;
36327;SDS011;22354;50.012;8.264;2022-08-18T16:36:22;11.33;;;8.53;;
36327;SDS011;22354;50.012;8.264;2022-08-18T16:38:51;11.43;;;7.93;;
36327;SDS011;22354;50.012;8.264;2022-08-18T16:41:17;12.13;;;7.20;;
36327;SDS011;22354;50.012;8.264;2022-08-18T16:43:44;11.43;;;7.47;;
36327;SDS011;22354;50.012;8.264;2022-08-18T16:46:15;10.70;;;7.10;;
36327;SDS011;22354;50.012;8.264;2022-08-18T16:48:45;12.48;;;7.53;;
36327;SDS011;22354;50.012;8.264;2022-08-18T16:51:12;10.50;;;7.30;;
36327;SDS011;22354;50.012;8.264;2022-08-18T16:53:38;11.05;;;7.50;;
36327;SDS011;22354;50.012;8.264;2022-08-18T16:56:08;12.07;;;7.97;;
36327;SDS011;22354;50.012;8.264;2022-08-18T16:58:34;12.10;;;7.43;;
36327;SDS011;22354;50.012;8.264;2022-08-18T17:01:18;14.77;;;8.65;;
36327;SDS011;22354;50.012;8.264;2022-08-18T17:04:02;11.77;;;8.50;;
36327;SDS011;22354;50.012;8.264;2022-08-18T17:06:31;13.15;;;8.00;;
36327;SDS011;22354;50.012;8.264;2022-08-18T17:08:58;12.73;;;8.40;;
36327;SDS011;22354;50.012;8.264;2022-08-18T17:11:24;10.63;;;7.97;;